sensor_id;sensor_type;location;lat;lon;timestamp;P1;durP1;ratioP1;P2;durP2;ratioP2
22455;SDS011;11395;53.204;6.502;2022-11-02T00:09:36;1.90;;;1.00;;
22455;SDS011;11395;53.204;6.502;2022-11-02T00:12:02;1.37;;;1.27;;
22455;SDS011;11395;53.204;6.502;2022-11-02T00:14:28;1.10;;;1.00;;
22455;SDS011;11395;53.204;6.502;2022-11-02T00:16:54;1.37;;;1.23;;
22455;SDS011;11395;53.204;6.502;2022-11-02T00:19:21;1.27;;;1.17;;
22455;SDS011;11395;53.204;6.502;2022-11-02T00:21:47;1.33;;;1.10;;
22455;SDS011;11395;53.204;6.502;2022-11-02T00:24:14;1.13;;;1.03;;
22455;SDS011;11395;53.204;6.502;2022-11-02T00:26:40;1.00;;;1.00;;
22455;SDS011;11395;53.204;6.502;2022-11-02T00:29:06;2.20;;;1.73;;
22455;SDS011;11395;53.204;6.502;2022-11-02T00:31:33;2.10;;;1.27;;
22455;SDS011;11395;53.204;6.502;2022-11-02T00:34:00;1.53;;;1.20;;
22455;SDS011;11395;53.204;6.502;2022-11-02T00:36:27;1.30;;;1.20;;
22455;SDS011;11395;53.204;6.502;2022-11-02T00:38:53;1.00;;;1.00;;
22455;SDS011;11395;53.204;6.502;2022-11-02T00:41:20;1.30;;;1.20;;
22455;SDS011;11395;53.204;6.502;2022-11-02T00:43:47;1.30;;;1.20;;
22455;SDS011;11395;53.204;6.502;2022-11-02T00:46:13;2.00;;;1.43;;
22455;SDS011;11395;53.204;6.502;2022-11-02T00:48:39;1.17;;;1.17;;
22455;SDS011;11395;53.204;6.502;2022-11-02T00:51:07;1.40;;;1.13;;
22455;SDS011;11395;53.204;6.502;2022-11-02T00:53:34;1.13;;;1.00;;
22455;SDS011;11395;53.204;6.502;2022-11-02T00:56:00;1.47;;;1.33;;
22455;SDS011;11395;53.204;6.502;2022-11-02T00:58:27;0.83;;;0.83;;
22455;SDS011;11395;53.204;6.502;2022-11-02T01:10:19;1.10;;;1.10;;
22455;SDS011;11395;53.204;6.502;2022-11-02T01:12:45;1.20;;;1.10;;
22455;SDS011;11395;53.204;6.502;2022-11-02T01:15:12;0.93;;;0.93;;
22455;SDS011;11395;53.204;6.502;2022-11-02T01:17:38;1.00;;;1.00;;
22455;SDS011;11395;53.204;6.502;2022-11-02T01:20:04;1.07;;;1.07;;
22455;SDS011;11395;53.204;6.502;2022-11-02T01:22:32;1.43;;;0.90;;
22455;SDS011;11395;53.204;6.502;2022-11-02T01:24:58;1.03;;;1.03;;
22455;SDS011;11395;53.204;6.502;2022-11-02T01:27:25;1.03;;;1.00;;
22455;SDS011;11395;53.204;6.502;2022-11-02T01:29:51;1.17;;;1.17;;
22455;SDS011;11395;53.204;6.502;2022-11-02T01:32:18;1.67;;;1.20;;
22455;SDS011;11395;53.204;6.502;2022-11-02T01:34:44;1.10;;;1.10;;
22455;SDS011;11395;53.204;6.502;2022-11-02T01:37:10;1.17;;;1.07;;
22455;SDS011;11395;53.204;6.502;2022-11-02T01:39:37;1.30;;;1.20;;
22455;SDS011;11395;53.204;6.502;2022-11-02T01:42:14;1.17;;;1.07;;
22455;SDS011;11395;53.204;6.502;2022-11-02T01:44:45;1.10;;;1.00;;
22455;SDS011;11395;53.204;6.502;2022-11-02T01:49:54;0.90;;;0.90;;
22455;SDS011;11395;53.204;6.502;2022-11-02T01:52:45;0.90;;;0.90;;
22455;SDS011;11395;53.204;6.502;2022-11-02T01:57:42;1.67;;;1.00;;
22455;SDS011;11395;53.204;6.502;2022-11-02T02:10:17;1.20;;;1.10;;
22455;SDS011;11395;53.204;6.502;2022-11-02T02:12:44;1.00;;;0.90;;
22455;SDS011;11395;53.204;6.502;2022-11-02T02:15:14;1.10;;;1.10;;
22455;SDS011;11395;53.204;6.502;2022-11-02T02:23:07;1.17;;;1.10;;
22455;SDS011;11395;53.204;6.502;2022-11-02T02:31:44;1.70;;;1.03;;
22455;SDS011;11395;53.204;6.502;2022-11-02T02:34:24;1.17;;;1.00;;
22455;SDS011;11395;53.204;6.502;2022-11-02T02:37:08;1.27;;;1.17;;
22455;SDS011;11395;53.204;6.502;2022-11-02T02:50:39;1.00;;;1.00;;
22455;SDS011;11395;53.204;6.502;2022-11-02T02:53:13;0.83;;;0.83;;
22455;SDS011;11395;53.204;6.502;2022-11-02T02:55:44;0.93;;;0.93;;
22455;SDS011;11395;53.204;6.502;2022-11-02T02:58:22;1.17;;;1.00;;
22455;SDS011;11395;53.204;6.502;2022-11-02T03:20:32;2.30;;;1.10;;
22455;SDS011;11395;53.204;6.502;2022-11-02T03:23:12;1.03;;;0.97;;
22455;SDS011;11395;53.204;6.502;2022-11-02T03:31:17;1.10;;;1.10;;
22455;SDS011;11395;53.204;6.502;2022-11-02T03:34:37;0.97;;;0.90;;
22455;SDS011;11395;53.204;6.502;2022-11-02T03:39:15;1.20;;;1.10;;
22455;SDS011;11395;53.204;6.502;2022-11-02T03:41:44;2.00;;;1.20;;
22455;SDS011;11395;53.204;6.502;2022-11-02T03:44:14;1.07;;;0.97;;
22455;SDS011;11395;53.204;6.502;2022-11-02T03:46:46;1.00;;;1.00;;
22455;SDS011;11395;53.204;6.502;2022-11-02T03:49:16;1.03;;;1.00;;
22455;SDS011;11395;53.204;6.502;2022-11-02T03:51:46;1.00;;;1.00;;
22455;SDS011;11395;53.204;6.502;2022-11-02T03:54:17;0.93;;;0.93;;
22455;SDS011;11395;53.204;6.502;2022-11-02T03:56:50;1.20;;;1.10;;
22455;SDS011;11395;53.204;6.502;2022-11-02T03:59:21;1.27;;;0.97;;
22455;SDS011;11395;53.204;6.502;2022-11-02T04:01:48;1.10;;;1.10;;
22455;SDS011;11395;53.204;6.502;2022-11-02T04:04:17;1.10;;;1.07;;
22455;SDS011;11395;53.204;6.502;2022-11-02T04:06:45;2.10;;;1.20;;
22455;SDS011;11395;53.204;6.502;2022-11-02T04:09:13;0.90;;;0.90;;
22455;SDS011;11395;53.204;6.502;2022-11-02T04:11:40;0.93;;;0.93;;
22455;SDS011;11395;53.204;6.502;2022-11-02T04:14:27;0.90;;;0.90;;
22455;SDS011;11395;53.204;6.502;2022-11-02T04:17:04;0.97;;;0.97;;
22455;SDS011;11395;53.204;6.502;2022-11-02T04:19:53;1.03;;;0.90;;
22455;SDS011;11395;53.204;6.502;2022-11-02T04:22:21;1.43;;;1.07;;
22455;SDS011;11395;53.204;6.502;2022-11-02T04:25:14;1.00;;;1.00;;
22455;SDS011;11395;53.204;6.502;2022-11-02T04:28:08;0.97;;;0.97;;
22455;SDS011;11395;53.204;6.502;2022-11-02T04:30:58;0.90;;;0.90;;
22455;SDS011;11395;53.204;6.502;2022-11-02T04:33:26;1.00;;;1.00;;
22455;SDS011;11395;53.204;6.502;2022-11-02T04:36:19;1.13;;;1.10;;
22455;SDS011;11395;53.204;6.502;2022-11-02T04:38:50;1.07;;;1.07;;
22455;SDS011;11395;53.204;6.502;2022-11-02T04:41:21;0.80;;;0.80;;
22455;SDS011;11395;53.204;6.502;2022-11-02T04:44:29;0.87;;;0.87;;
22455;SDS011;11395;53.204;6.502;2022-11-02T04:47:00;1.00;;;0.87;;
22455;SDS011;11395;53.204;6.502;2022-11-02T04:49:30;1.00;;;1.00;;
22455;SDS011;11395;53.204;6.502;2022-11-02T04:51:57;1.37;;;0.83;;
22455;SDS011;11395;53.204;6.502;2022-11-02T04:54:25;1.13;;;1.10;;
22455;SDS011;11395;53.204;6.502;2022-11-02T04:56:56;2.00;;;1.20;;
22455;SDS011;11395;53.204;6.502;2022-11-02T04:59:24;0.90;;;0.90;;
22455;SDS011;11395;53.204;6.502;2022-11-02T05:01:51;1.00;;;1.00;;
22455;SDS011;11395;53.204;6.502;2022-11-02T05:04:17;0.90;;;0.90;;
22455;SDS011;11395;53.204;6.502;2022-11-02T05:06:45;1.20;;;1.10;;
22455;SDS011;11395;53.204;6.502;2022-11-02T05:09:12;0.80;;;0.80;;
22455;SDS011;11395;53.204;6.502;2022-11-02T05:11:55;0.83;;;0.83;;
22455;SDS011;11395;53.204;6.502;2022-11-02T05:14:26;1.07;;;1.00;;
22455;SDS011;11395;53.204;6.502;2022-11-02T05:16:56;1.23;;;1.17;;
22455;SDS011;11395;53.204;6.502;2022-11-02T05:19:32;0.73;;;0.73;;
22455;SDS011;11395;53.204;6.502;2022-11-02T05:22:12;0.97;;;0.97;;
22455;SDS011;11395;53.204;6.502;2022-11-02T05:24:43;1.00;;;1.00;;
22455;SDS011;11395;53.204;6.502;2022-11-02T05:27:10;0.90;;;0.90;;
22455;SDS011;11395;53.204;6.502;2022-11-02T05:30:09;0.90;;;0.90;;
22455;SDS011;11395;53.204;6.502;2022-11-02T05:32:56;1.53;;;1.20;;
22455;SDS011;11395;53.204;6.502;2022-11-02T05:35:37;0.70;;;0.70;;
22455;SDS011;11395;53.204;6.502;2022-11-02T05:38:17;0.80;;;0.80;;
22455;SDS011;11395;53.204;6.502;2022-11-02T05:40:55;1.27;;;1.07;;
22455;SDS011;11395;53.204;6.502;2022-11-02T05:43:28;0.80;;;0.80;;
22455;SDS011;11395;53.204;6.502;2022-11-02T05:45:59;2.33;;;1.17;;
22455;SDS011;11395;53.204;6.502;2022-11-02T05:48:34;0.80;;;0.80;;
22455;SDS011;11395;53.204;6.502;2022-11-02T05:51:08;1.03;;;1.00;;
22455;SDS011;11395;53.204;6.502;2022-11-02T05:53:40;0.90;;;0.90;;
22455;SDS011;11395;53.204;6.502;2022-11-02T05:56:08;0.80;;;0.80;;
22455;SDS011;11395;53.204;6.502;2022-11-02T05:58:38;0.93;;;0.90;;
22455;SDS011;11395;53.204;6.502;2022-11-02T06:01:10;1.60;;;1.00;;
22455;SDS011;11395;53.204;6.502;2022-11-02T06:03:39;0.90;;;0.90;;
22455;SDS011;11395;53.204;6.502;2022-11-02T06:06:09;0.90;;;0.90;;
22455;SDS011;11395;53.204;6.502;2022-11-02T06:08:42;0.80;;;0.80;;
22455;SDS011;11395;53.204;6.502;2022-11-02T06:11:14;1.10;;;1.00;;
22455;SDS011;11395;53.204;6.502;2022-11-02T06:13:40;1.13;;;0.90;;
22455;SDS011;11395;53.204;6.502;2022-11-02T06:16:13;0.73;;;0.73;;
22455;SDS011;11395;53.204;6.502;2022-11-02T06:18:42;1.10;;;0.90;;
22455;SDS011;11395;53.204;6.502;2022-11-02T06:21:13;0.80;;;0.80;;
22455;SDS011;11395;53.204;6.502;2022-11-02T06:23:40;1.27;;;0.90;;
22455;SDS011;11395;53.204;6.502;2022-11-02T06:26:08;0.80;;;0.80;;
22455;SDS011;11395;53.204;6.502;2022-11-02T06:28:37;1.10;;;1.00;;
22455;SDS011;11395;53.204;6.502;2022-11-02T06:31:22;1.23;;;0.77;;
22455;SDS011;11395;53.204;6.502;2022-11-02T06:33:51;1.00;;;0.97;;
22455;SDS011;11395;53.204;6.502;2022-11-02T06:36:18;1.10;;;1.10;;
22455;SDS011;11395;53.204;6.502;2022-11-02T06:39:07;1.00;;;0.97;;
22455;SDS011;11395;53.204;6.502;2022-11-02T06:44:24;1.07;;;0.93;;
22455;SDS011;11395;53.204;6.502;2022-11-02T06:47:13;0.97;;;0.97;;
22455;SDS011;11395;53.204;6.502;2022-11-02T06:49:57;1.00;;;1.00;;
22455;SDS011;11395;53.204;6.502;2022-11-02T06:52:43;0.80;;;0.70;;
22455;SDS011;11395;53.204;6.502;2022-11-02T06:55:26;2.83;;;1.10;;
22455;SDS011;11395;53.204;6.502;2022-11-02T06:58:32;1.00;;;1.00;;
22455;SDS011;11395;53.204;6.502;2022-11-02T07:01:07;0.87;;;0.87;;
22455;SDS011;11395;53.204;6.502;2022-11-02T07:03:55;1.00;;;1.00;;
22455;SDS011;11395;53.204;6.502;2022-11-02T07:06:51;1.33;;;0.90;;
22455;SDS011;11395;53.204;6.502;2022-11-02T07:10:09;0.90;;;0.90;;
22455;SDS011;11395;53.204;6.502;2022-11-02T07:13:00;1.10;;;1.00;;
22455;SDS011;11395;53.204;6.502;2022-11-02T07:15:54;2.30;;;1.30;;
22455;SDS011;11395;53.204;6.502;2022-11-02T07:18:34;0.90;;;0.90;;
22455;SDS011;11395;53.204;6.502;2022-11-02T07:21:27;1.20;;;1.10;;
22455;SDS011;11395;53.204;6.502;2022-11-02T07:24:03;0.83;;;0.83;;
22455;SDS011;11395;53.204;6.502;2022-11-02T07:26:32;4.93;;;1.10;;
22455;SDS011;11395;53.204;6.502;2022-11-02T07:29:05;0.93;;;0.90;;
22455;SDS011;11395;53.204;6.502;2022-11-02T07:31:52;1.20;;;1.07;;
22455;SDS011;11395;53.204;6.502;2022-11-02T07:34:40;1.07;;;0.90;;
22455;SDS011;11395;53.204;6.502;2022-11-02T07:37:38;1.10;;;1.00;;
22455;SDS011;11395;53.204;6.502;2022-11-02T07:40:10;1.00;;;1.00;;
22455;SDS011;11395;53.204;6.502;2022-11-02T07:43:38;1.30;;;1.20;;
22455;SDS011;11395;53.204;6.502;2022-11-02T07:46:39;1.00;;;1.00;;
22455;SDS011;11395;53.204;6.502;2022-11-02T07:49:41;1.00;;;0.90;;
22455;SDS011;11395;53.204;6.502;2022-11-02T08:03:25;1.93;;;0.97;;
22455;SDS011;11395;53.204;6.502;2022-11-02T08:10:06;0.93;;;0.87;;
22455;SDS011;11395;53.204;6.502;2022-11-02T08:13:43;1.20;;;1.10;;
22455;SDS011;11395;53.204;6.502;2022-11-02T08:17:24;1.23;;;1.00;;
22455;SDS011;11395;53.204;6.502;2022-11-02T08:34:13;1.23;;;0.87;;
22455;SDS011;11395;53.204;6.502;2022-11-02T08:36:51;1.77;;;1.17;;
22455;SDS011;11395;53.204;6.502;2022-11-02T08:39:32;1.30;;;1.23;;
22455;SDS011;11395;53.204;6.502;2022-11-02T08:42:23;1.20;;;1.10;;
22455;SDS011;11395;53.204;6.502;2022-11-02T08:44:52;1.40;;;1.10;;
22455;SDS011;11395;53.204;6.502;2022-11-02T08:50:20;1.10;;;1.00;;
22455;SDS011;11395;53.204;6.502;2022-11-02T08:53:20;1.33;;;1.00;;
22455;SDS011;11395;53.204;6.502;2022-11-02T08:56:28;2.50;;;1.30;;
22455;SDS011;11395;53.204;6.502;2022-11-02T08:59:53;2.93;;;1.50;;
22455;SDS011;11395;53.204;6.502;2022-11-02T09:02:24;2.60;;;1.30;;
22455;SDS011;11395;53.204;6.502;2022-11-02T09:04:59;1.13;;;1.10;;
22455;SDS011;11395;53.204;6.502;2022-11-02T09:07:35;1.17;;;1.03;;
22455;SDS011;11395;53.204;6.502;2022-11-02T09:13:17;2.20;;;1.00;;
22455;SDS011;11395;53.204;6.502;2022-11-02T09:16:15;1.70;;;1.00;;
22455;SDS011;11395;53.204;6.502;2022-11-02T09:19:39;2.07;;;1.50;;
22455;SDS011;11395;53.204;6.502;2022-11-02T09:22:24;2.50;;;1.20;;
22455;SDS011;11395;53.204;6.502;2022-11-02T09:24:53;2.03;;;1.30;;
22455;SDS011;11395;53.204;6.502;2022-11-02T09:27:22;6.73;;;2.63;;
22455;SDS011;11395;53.204;6.502;2022-11-02T09:29:51;1.60;;;1.50;;
22455;SDS011;11395;53.204;6.502;2022-11-02T09:32:24;2.43;;;1.60;;
22455;SDS011;11395;53.204;6.502;2022-11-02T09:35:05;2.83;;;1.40;;
22455;SDS011;11395;53.204;6.502;2022-11-02T09:37:33;1.60;;;1.37;;
22455;SDS011;11395;53.204;6.502;2022-11-02T09:39:59;1.57;;;1.30;;
22455;SDS011;11395;53.204;6.502;2022-11-02T09:45:31;1.73;;;1.30;;
22455;SDS011;11395;53.204;6.502;2022-11-02T09:48:03;1.80;;;1.40;;
22455;SDS011;11395;53.204;6.502;2022-11-02T09:50:43;2.30;;;1.17;;
22455;SDS011;11395;53.204;6.502;2022-11-02T09:53:28;2.23;;;1.47;;
22455;SDS011;11395;53.204;6.502;2022-11-02T09:56:02;1.30;;;1.20;;
22455;SDS011;11395;53.204;6.502;2022-11-02T09:58:34;2.13;;;1.27;;
22455;SDS011;11395;53.204;6.502;2022-11-02T10:01:06;2.10;;;1.37;;
22455;SDS011;11395;53.204;6.502;2022-11-02T10:06:53;1.93;;;1.30;;
22455;SDS011;11395;53.204;6.502;2022-11-02T10:09:30;1.30;;;1.20;;
22455;SDS011;11395;53.204;6.502;2022-11-02T10:12:11;1.53;;;1.40;;
22455;SDS011;11395;53.204;6.502;2022-11-02T10:15:14;1.90;;;1.50;;
22455;SDS011;11395;53.204;6.502;2022-11-02T10:17:41;2.13;;;1.50;;
22455;SDS011;11395;53.204;6.502;2022-11-02T10:20:31;2.40;;;1.40;;
22455;SDS011;11395;53.204;6.502;2022-11-02T10:23:06;1.83;;;1.37;;
22455;SDS011;11395;53.204;6.502;2022-11-02T10:25:36;2.97;;;1.50;;
22455;SDS011;11395;53.204;6.502;2022-11-02T10:28:08;1.97;;;1.27;;
22455;SDS011;11395;53.204;6.502;2022-11-02T10:30:38;1.87;;;1.20;;
22455;SDS011;11395;53.204;6.502;2022-11-02T10:33:11;2.37;;;1.70;;
22455;SDS011;11395;53.204;6.502;2022-11-02T10:38:49;3.00;;;1.30;;
22455;SDS011;11395;53.204;6.502;2022-11-02T10:47:21;2.03;;;1.50;;
22455;SDS011;11395;53.204;6.502;2022-11-02T10:52:55;1.90;;;1.53;;
22455;SDS011;11395;53.204;6.502;2022-11-02T10:55:28;1.30;;;1.20;;
22455;SDS011;11395;53.204;6.502;2022-11-02T10:58:03;1.70;;;1.20;;
22455;SDS011;11395;53.204;6.502;2022-11-02T11:00:34;1.27;;;1.17;;
22455;SDS011;11395;53.204;6.502;2022-11-02T11:05:53;3.30;;;1.30;;
22455;SDS011;11395;53.204;6.502;2022-11-02T11:10:53;1.57;;;1.10;;
22455;SDS011;11395;53.204;6.502;2022-11-02T11:13:20;2.00;;;1.23;;
22455;SDS011;11395;53.204;6.502;2022-11-02T11:15:51;2.30;;;1.33;;
22455;SDS011;11395;53.204;6.502;2022-11-02T11:18:17;2.50;;;1.20;;
22455;SDS011;11395;53.204;6.502;2022-11-02T11:20:45;1.20;;;1.10;;
22455;SDS011;11395;53.204;6.502;2022-11-02T11:23:30;1.83;;;1.03;;
22455;SDS011;11395;53.204;6.502;2022-11-02T11:26:04;3.83;;;1.50;;
22455;SDS011;11395;53.204;6.502;2022-11-02T11:28:51;2.43;;;1.60;;
22455;SDS011;11395;53.204;6.502;2022-11-02T11:31:18;1.57;;;1.47;;
22455;SDS011;11395;53.204;6.502;2022-11-02T11:33:53;1.83;;;1.30;;
22455;SDS011;11395;53.204;6.502;2022-11-02T11:36:22;1.70;;;1.60;;
22455;SDS011;11395;53.204;6.502;2022-11-02T11:38:50;2.53;;;1.30;;
22455;SDS011;11395;53.204;6.502;2022-11-02T11:41:19;2.30;;;1.50;;
22455;SDS011;11395;53.204;6.502;2022-11-02T11:43:45;2.23;;;1.30;;
22455;SDS011;11395;53.204;6.502;2022-11-02T11:46:13;1.60;;;1.40;;
22455;SDS011;11395;53.204;6.502;2022-11-02T11:48:44;2.00;;;1.37;;
22455;SDS011;11395;53.204;6.502;2022-11-02T11:51:36;1.33;;;1.23;;
22455;SDS011;11395;53.204;6.502;2022-11-02T11:56:52;2.73;;;1.40;;
22455;SDS011;11395;53.204;6.502;2022-11-02T11:59:42;2.17;;;1.20;;
22455;SDS011;11395;53.204;6.502;2022-11-02T12:02:19;1.30;;;1.10;;
22455;SDS011;11395;53.204;6.502;2022-11-02T12:04:49;3.57;;;1.20;;
22455;SDS011;11395;53.204;6.502;2022-11-02T12:28:16;3.97;;;1.43;;
22455;SDS011;11395;53.204;6.502;2022-11-02T12:31:06;3.00;;;1.20;;
22455;SDS011;11395;53.204;6.502;2022-11-02T12:42:01;1.17;;;1.07;;
22455;SDS011;11395;53.204;6.502;2022-11-02T12:55:26;1.80;;;1.23;;
22455;SDS011;11395;53.204;6.502;2022-11-02T12:58:00;2.70;;;1.43;;
22455;SDS011;11395;53.204;6.502;2022-11-02T13:00:36;2.33;;;1.20;;
22455;SDS011;11395;53.204;6.502;2022-11-02T13:05:42;1.40;;;1.30;;
22455;SDS011;11395;53.204;6.502;2022-11-02T13:08:21;2.40;;;1.37;;
22455;SDS011;11395;53.204;6.502;2022-11-02T13:10:57;2.63;;;1.50;;
22455;SDS011;11395;53.204;6.502;2022-11-02T13:15:57;1.97;;;1.00;;
22455;SDS011;11395;53.204;6.502;2022-11-02T13:18:29;1.83;;;1.30;;
22455;SDS011;11395;53.204;6.502;2022-11-02T13:20:59;1.73;;;1.30;;
22455;SDS011;11395;53.204;6.502;2022-11-02T13:23:48;2.27;;;1.40;;
22455;SDS011;11395;53.204;6.502;2022-11-02T13:34:31;2.30;;;1.50;;
22455;SDS011;11395;53.204;6.502;2022-11-02T13:37:02;1.23;;;1.10;;
22455;SDS011;11395;53.204;6.502;2022-11-02T13:39:40;1.60;;;1.20;;
22455;SDS011;11395;53.204;6.502;2022-11-02T13:48:13;1.43;;;1.10;;
22455;SDS011;11395;53.204;6.502;2022-11-02T13:50:51;1.60;;;1.20;;
22455;SDS011;11395;53.204;6.502;2022-11-02T13:53:21;1.37;;;1.27;;
22455;SDS011;11395;53.204;6.502;2022-11-02T13:55:54;1.53;;;0.90;;
22455;SDS011;11395;53.204;6.502;2022-11-02T13:58:25;1.67;;;1.30;;
22455;SDS011;11395;53.204;6.502;2022-11-02T14:01:00;1.43;;;1.33;;
22455;SDS011;11395;53.204;6.502;2022-11-02T14:03:33;2.03;;;1.20;;
22455;SDS011;11395;53.204;6.502;2022-11-02T14:06:18;1.27;;;1.10;;
22455;SDS011;11395;53.204;6.502;2022-11-02T14:08:50;1.07;;;0.97;;
22455;SDS011;11395;53.204;6.502;2022-11-02T14:11:33;1.77;;;1.40;;
22455;SDS011;11395;53.204;6.502;2022-11-02T14:29:50;3.03;;;1.00;;
22455;SDS011;11395;53.204;6.502;2022-11-02T14:32:21;1.50;;;1.40;;
22455;SDS011;11395;53.204;6.502;2022-11-02T14:38:11;1.63;;;1.20;;
22455;SDS011;11395;53.204;6.502;2022-11-02T14:43:31;1.53;;;1.17;;
22455;SDS011;11395;53.204;6.502;2022-11-02T14:49:00;1.33;;;1.20;;
22455;SDS011;11395;53.204;6.502;2022-11-02T14:51:29;1.63;;;1.17;;
22455;SDS011;11395;53.204;6.502;2022-11-02T14:54:16;2.10;;;1.70;;
22455;SDS011;11395;53.204;6.502;2022-11-02T14:56:49;2.60;;;1.20;;
22455;SDS011;11395;53.204;6.502;2022-11-02T14:59:37;2.60;;;1.33;;
22455;SDS011;11395;53.204;6.502;2022-11-02T15:02:19;1.17;;;1.13;;
22455;SDS011;11395;53.204;6.502;2022-11-02T15:04:52;2.37;;;1.40;;
22455;SDS011;11395;53.204;6.502;2022-11-02T15:10:00;1.10;;;1.10;;
22455;SDS011;11395;53.204;6.502;2022-11-02T15:12:49;1.33;;;1.20;;
22455;SDS011;11395;53.204;6.502;2022-11-02T15:15:45;1.20;;;1.10;;
22455;SDS011;11395;53.204;6.502;2022-11-02T15:18:36;1.63;;;1.20;;
22455;SDS011;11395;53.204;6.502;2022-11-02T15:23:43;1.50;;;1.07;;
22455;SDS011;11395;53.204;6.502;2022-11-02T15:26:11;1.57;;;1.30;;
22455;SDS011;11395;53.204;6.502;2022-11-02T15:28:43;2.43;;;1.40;;
22455;SDS011;11395;53.204;6.502;2022-11-02T15:31:14;2.10;;;0.90;;
22455;SDS011;11395;53.204;6.502;2022-11-02T15:33:45;2.60;;;1.40;;
22455;SDS011;11395;53.204;6.502;2022-11-02T15:36:27;3.00;;;1.10;;
22455;SDS011;11395;53.204;6.502;2022-11-02T15:38:57;1.50;;;1.00;;
22455;SDS011;11395;53.204;6.502;2022-11-02T15:44:36;2.00;;;1.10;;
22455;SDS011;11395;53.204;6.502;2022-11-02T15:55:17;1.20;;;1.10;;
22455;SDS011;11395;53.204;6.502;2022-11-02T16:00:41;1.97;;;1.50;;
22455;SDS011;11395;53.204;6.502;2022-11-02T16:03:08;1.30;;;1.17;;
22455;SDS011;11395;53.204;6.502;2022-11-02T16:05:43;2.37;;;1.13;;
22455;SDS011;11395;53.204;6.502;2022-11-02T16:08:25;1.77;;;1.27;;
22455;SDS011;11395;53.204;6.502;2022-11-02T16:11:04;2.20;;;1.40;;
22455;SDS011;11395;53.204;6.502;2022-11-02T16:13:32;3.30;;;1.80;;
22455;SDS011;11395;53.204;6.502;2022-11-02T16:16:06;1.93;;;1.10;;
22455;SDS011;11395;53.204;6.502;2022-11-02T16:18:36;2.47;;;1.50;;
22455;SDS011;11395;53.204;6.502;2022-11-02T16:21:17;2.37;;;1.50;;
22455;SDS011;11395;53.204;6.502;2022-11-02T16:23:48;1.10;;;1.00;;
22455;SDS011;11395;53.204;6.502;2022-11-02T16:26:25;2.17;;;1.30;;
22455;SDS011;11395;53.204;6.502;2022-11-02T16:28:54;2.13;;;1.10;;
22455;SDS011;11395;53.204;6.502;2022-11-02T16:31:33;1.47;;;1.20;;
22455;SDS011;11395;53.204;6.502;2022-11-02T16:34:22;1.70;;;1.50;;
22455;SDS011;11395;53.204;6.502;2022-11-02T16:36:52;1.63;;;1.30;;
22455;SDS011;11395;53.204;6.502;2022-11-02T16:39:26;2.33;;;1.93;;
22455;SDS011;11395;53.204;6.502;2022-11-02T16:41:55;2.40;;;1.40;;
22455;SDS011;11395;53.204;6.502;2022-11-02T16:44:24;2.73;;;1.47;;
22455;SDS011;11395;53.204;6.502;2022-11-02T16:46:59;1.57;;;1.43;;
22455;SDS011;11395;53.204;6.502;2022-11-02T16:49:31;1.30;;;1.20;;
22455;SDS011;11395;53.204;6.502;2022-11-02T16:52:05;1.70;;;1.37;;
22455;SDS011;11395;53.204;6.502;2022-11-02T16:54:43;1.70;;;1.53;;
22455;SDS011;11395;53.204;6.502;2022-11-02T17:02:26;16.93;;;9.23;;
22455;SDS011;11395;53.204;6.502;2022-11-02T17:05:00;38.40;;;19.23;;
22455;SDS011;11395;53.204;6.502;2022-11-02T17:07:28;51.87;;;27.20;;
22455;SDS011;11395;53.204;6.502;2022-11-02T17:09:55;50.83;;;28.17;;
22455;SDS011;11395;53.204;6.502;2022-11-02T17:12:28;37.40;;;21.73;;
22455;SDS011;11395;53.204;6.502;2022-11-02T17:15:00;53.43;;;29.20;;
22455;SDS011;11395;53.204;6.502;2022-11-02T17:17:30;57.80;;;30.80;;
22455;SDS011;11395;53.204;6.502;2022-11-02T17:22:34;37.40;;;21.07;;
22455;SDS011;11395;53.204;6.502;2022-11-02T17:25:03;29.47;;;18.83;;
22455;SDS011;11395;53.204;6.502;2022-11-02T17:27:43;37.33;;;20.27;;
22455;SDS011;11395;53.204;6.502;2022-11-02T17:33:18;35.27;;;22.00;;
22455;SDS011;11395;53.204;6.502;2022-11-02T17:35:49;39.03;;;21.33;;
22455;SDS011;11395;53.204;6.502;2022-11-02T17:38:20;35.40;;;19.03;;
22455;SDS011;11395;53.204;6.502;2022-11-02T17:40:50;36.20;;;20.37;;
22455;SDS011;11395;53.204;6.502;2022-11-02T17:43:18;31.93;;;19.13;;
22455;SDS011;11395;53.204;6.502;2022-11-02T17:45:45;35.63;;;21.43;;
22455;SDS011;11395;53.204;6.502;2022-11-02T17:48:17;36.30;;;22.03;;
22455;SDS011;11395;53.204;6.502;2022-11-02T17:50:44;40.67;;;21.77;;
22455;SDS011;11395;53.204;6.502;2022-11-02T17:53:11;38.10;;;20.83;;
22455;SDS011;11395;53.204;6.502;2022-11-02T17:55:38;31.37;;;19.80;;
22455;SDS011;11395;53.204;6.502;2022-11-02T17:58:05;34.50;;;18.30;;
22455;SDS011;11395;53.204;6.502;2022-11-02T18:00:32;30.73;;;18.60;;
22455;SDS011;11395;53.204;6.502;2022-11-02T18:03:00;36.60;;;18.90;;
22455;SDS011;11395;53.204;6.502;2022-11-02T18:05:36;31.17;;;18.13;;
22455;SDS011;11395;53.204;6.502;2022-11-02T18:08:03;34.27;;;17.63;;
22455;SDS011;11395;53.204;6.502;2022-11-02T18:10:32;28.57;;;17.00;;
22455;SDS011;11395;53.204;6.502;2022-11-02T18:13:02;21.87;;;14.63;;
22455;SDS011;11395;53.204;6.502;2022-11-02T18:15:30;25.67;;;16.37;;
22455;SDS011;11395;53.204;6.502;2022-11-02T18:17:57;26.63;;;16.17;;
22455;SDS011;11395;53.204;6.502;2022-11-02T18:20:25;31.33;;;16.13;;
22455;SDS011;11395;53.204;6.502;2022-11-02T18:22:53;27.23;;;15.10;;
22455;SDS011;11395;53.204;6.502;2022-11-02T18:25:20;29.43;;;15.70;;
22455;SDS011;11395;53.204;6.502;2022-11-02T18:27:46;24.73;;;14.07;;
22455;SDS011;11395;53.204;6.502;2022-11-02T18:30:14;21.67;;;13.67;;
22455;SDS011;11395;53.204;6.502;2022-11-02T18:32:42;25.43;;;14.17;;
22455;SDS011;11395;53.204;6.502;2022-11-02T18:35:11;26.50;;;15.23;;
22455;SDS011;11395;53.204;6.502;2022-11-02T18:37:39;22.43;;;13.43;;
22455;SDS011;11395;53.204;6.502;2022-11-02T18:40:07;21.43;;;13.37;;
22455;SDS011;11395;53.204;6.502;2022-11-02T18:42:36;24.30;;;13.10;;
22455;SDS011;11395;53.204;6.502;2022-11-02T18:45:04;22.53;;;12.47;;
22455;SDS011;11395;53.204;6.502;2022-11-02T18:47:32;23.03;;;13.33;;
22455;SDS011;11395;53.204;6.502;2022-11-02T18:49:59;19.50;;;11.80;;
22455;SDS011;11395;53.204;6.502;2022-11-02T18:52:26;21.57;;;12.00;;
22455;SDS011;11395;53.204;6.502;2022-11-02T18:54:54;18.80;;;12.00;;
22455;SDS011;11395;53.204;6.502;2022-11-02T18:57:21;18.93;;;12.77;;
22455;SDS011;11395;53.204;6.502;2022-11-02T18:59:48;18.13;;;11.43;;
22455;SDS011;11395;53.204;6.502;2022-11-02T19:02:15;16.33;;;10.97;;
22455;SDS011;11395;53.204;6.502;2022-11-02T19:04:41;17.47;;;10.07;;
22455;SDS011;11395;53.204;6.502;2022-11-02T19:07:08;17.77;;;10.70;;
22455;SDS011;11395;53.204;6.502;2022-11-02T19:09:53;16.27;;;10.77;;
22455;SDS011;11395;53.204;6.502;2022-11-02T19:12:23;16.73;;;11.00;;
22455;SDS011;11395;53.204;6.502;2022-11-02T19:14:52;15.90;;;9.30;;
22455;SDS011;11395;53.204;6.502;2022-11-02T19:17:21;13.30;;;9.00;;
22455;SDS011;11395;53.204;6.502;2022-11-02T19:19:49;17.17;;;10.10;;
22455;SDS011;11395;53.204;6.502;2022-11-02T19:22:20;15.77;;;10.03;;
22455;SDS011;11395;53.204;6.502;2022-11-02T19:24:48;17.17;;;10.07;;
22455;SDS011;11395;53.204;6.502;2022-11-02T19:27:18;14.50;;;9.17;;
22455;SDS011;11395;53.204;6.502;2022-11-02T19:29:46;14.07;;;8.30;;
22455;SDS011;11395;53.204;6.502;2022-11-02T19:32:13;13.97;;;8.70;;
22455;SDS011;11395;53.204;6.502;2022-11-02T19:34:40;15.43;;;9.70;;
22455;SDS011;11395;53.204;6.502;2022-11-02T19:37:06;13.00;;;8.77;;
22455;SDS011;11395;53.204;6.502;2022-11-02T19:39:33;12.87;;;8.43;;
22455;SDS011;11395;53.204;6.502;2022-11-02T19:42:00;15.07;;;9.53;;
22455;SDS011;11395;53.204;6.502;2022-11-02T19:44:28;12.60;;;7.73;;
22455;SDS011;11395;53.204;6.502;2022-11-02T19:46:55;14.17;;;8.23;;
22455;SDS011;11395;53.204;6.502;2022-11-02T19:49:21;13.67;;;9.07;;